עמוד ראשי
METAR-TAF:

METAR-TAF

שדות תעופה :

שטוטגרט, גרמניה

קו רוחב: 48-41N, קו אורך: 009-13E, גובה: 396מטר

תצפית מזג אוויר נוכחית

הדו"ח נערך לפני 43דקות, בשעה 03:20 UTC
רוח 1קשר עם כיוונים משתנים
טמפרטורת 2 צלסיוס
לחות 80%
לחץ 1021 hPa
ראות 10 קילומטר או יותר
ללא עננים שבסיסם נמוך מ 5000 רגל או קומולונימבוס

METAR: EDDS 110320Z VRB01KT CAVOK 02/M01 Q1021

זמן: 05:03 (04:03 UTC)

תחזית

הדו"ח נערך לפני 5 שעות ו 3דקות, בשעה 23:00 UTC
תחזית בתוקף מ 11 ב 00 UTC עד 11 ב 24 UTC
רוח 3קשר עם כיוונים משתנים
ראות 10 קילומטר או יותר
עננים פזורים בגובה 3500רגל
יעשה מ
11 ב 05 UTC עד 11 ב 08 UTC
רוח 7קשר מכיוון מערב/דרום-מערב
הסתברות 40% :
זמנית מ -
11 ב 07 UTC עד 11 ב 12 UTC
גשם

TAF: EDDS 102300Z 1100/1124 VRB03KT 9999 SCT035 BECMG 1105/1108 24007KT PROB40 TEMPO 1107/1112 RA

תצפיות ותחזיות מזג אוויר לגבי יותר מ- 4,000 שדות תעופה ברחבי העולם. דוחות METAR ו- TAF.

התחנות הזמינות מסומנות בנקודות צהובות ואדומות על גבי המפה.

העבר את העכבר לנקודה הצבעונית על מנת לראות את שם התחנה.

לאחר מכן, לחץ כדי לראות את תוכן ואת תחזיות מזג האוויר.

כדי לשנות את המפה: לחץ על הכפתורים הירוקים עם הפלוס השחור כדי להתקרב; על הכפתור הירוק עם המקף כדי להתרחק; או בחיצים הירוקים למפות סמוכות.


METAR-TAF: